DAL4187 KBNA-KLGA
Flight info
| Callsign | DAL4187 |
|---|---|
| Flight time | N/A |
| Altitude | 35000 |
| Route | KRSTA4 OLSIE IIU Q139 CREEP Q29 WWSHR TEESY Q186 WEVEL ETG MIP4 |
| Aircraft | B738/M-SDE2E3FGHIRWXY/LB1 |
Departure
| Time | N/A |
|---|---|
| Airport | Nashville International Airport (KBNA) |
Arrival
| Time | 2026-05-06 02:32 |
|---|---|
| Airport | LaGuardia Airport (KLGA) |
| Time | Latitude | Longitude | Altitude | Speed | Heading |
|---|---|---|---|---|---|
| 2026-05-06 01:12 | 39.75066 | -84.43111 | 34972 ft | 482 kts | 15° |
| 2026-05-06 01:13 | 39.78014 | -84.41003 | 34969 ft | 481 kts | 15° |
| 2026-05-06 01:13 | 39.83834 | -84.36827 | 34971 ft | 479 kts | 15° |
| 2026-05-06 01:14 | 39.92511 | -84.29984 | 34969 ft | 495 kts | 25° |
| 2026-05-06 01:14 | 39.97857 | -84.24050 | 34850 ft | 510 kts | 32° |
| 2026-05-06 01:15 | 40.02907 | -84.17620 | 34847 ft | 511 kts | 34° |
| 2026-05-06 01:15 | 40.07949 | -84.11051 | 34845 ft | 511 kts | 33° |
| 2026-05-06 01:16 | 40.12970 | -84.04553 | 34839 ft | 511 kts | 33° |
| 2026-05-06 01:16 | 40.18063 | -83.98020 | 34839 ft | 509 kts | 33° |
| 2026-05-06 01:17 | 40.23108 | -83.91570 | 34834 ft | 510 kts | 33° |
| 2026-05-06 01:17 | 40.28205 | -83.85056 | 34841 ft | 510 kts | 33° |
| 2026-05-06 01:18 | 40.33281 | -83.78558 | 34845 ft | 508 kts | 33° |
| 2026-05-06 01:18 | 40.38307 | -83.72098 | 34843 ft | 508 kts | 33° |
| 2026-05-06 01:19 | 40.43347 | -83.65620 | 34849 ft | 511 kts | 33° |
| 2026-05-06 01:19 | 40.48399 | -83.59106 | 34850 ft | 508 kts | 33° |
| 2026-05-06 01:20 | 40.53421 | -83.52609 | 34838 ft | 508 kts | 33° |
| 2026-05-06 01:20 | 40.58540 | -83.45997 | 34858 ft | 509 kts | 33° |
| 2026-05-06 01:21 | 40.63549 | -83.39489 | 34853 ft | 507 kts | 33° |
| 2026-05-06 01:21 | 40.68572 | -83.32939 | 34848 ft | 512 kts | 36° |
| 2026-05-06 01:22 | 40.73329 | -83.25819 | 34854 ft | 519 kts | 41° |
| 2026-05-06 01:22 | 40.77770 | -83.18255 | 34845 ft | 525 kts | 43° |
| 2026-05-06 01:23 | 40.82144 | -83.10575 | 34851 ft | 520 kts | 44° |
| 2026-05-06 01:23 | 40.86539 | -83.02934 | 34860 ft | 523 kts | 43° |
| 2026-05-06 01:24 | 40.90965 | -82.95303 | 34841 ft | 521 kts | 43° |
| 2026-05-06 01:24 | 40.95363 | -82.87726 | 34848 ft | 519 kts | 43° |
| 2026-05-06 01:25 | 40.99739 | -82.80205 | 34859 ft | 520 kts | 42° |
| 2026-05-06 01:25 | 41.04133 | -82.72611 | 34869 ft | 517 kts | 43° |
| 2026-05-06 01:26 | 41.08463 | -82.65104 | 34873 ft | 515 kts | 43° |
| 2026-05-06 01:26 | 41.12769 | -82.57561 | 34874 ft | 523 kts | 45° |
| 2026-05-06 01:27 | 41.16699 | -82.49398 | 34876 ft | 529 kts | 52° |
| 2026-05-06 01:27 | 41.20193 | -82.40848 | 34886 ft | 532 kts | 54° |
| 2026-05-06 01:28 | 41.23595 | -82.32114 | 34859 ft | 533 kts | 55° |
| 2026-05-06 01:28 | 41.27005 | -82.23424 | 34884 ft | 533 kts | 55° |
| 2026-05-06 01:29 | 41.30435 | -82.14815 | 34880 ft | 531 kts | 55° |
| 2026-05-06 01:29 | 41.33398 | -82.05792 | 34862 ft | 542 kts | 68° |
| 2026-05-06 01:30 | 41.34843 | -81.95857 | 34873 ft | 549 kts | 80° |
| 2026-05-06 01:30 | 41.35427 | -81.85741 | 34869 ft | 550 kts | 85° |
| 2026-05-06 01:31 | 41.35786 | -81.75845 | 34852 ft | 549 kts | 84° |
| 2026-05-06 01:31 | 41.36098 | -81.65757 | 34860 ft | 549 kts | 86° |
| 2026-05-06 01:32 | 41.35990 | -81.55682 | 34863 ft | 549 kts | 90° |
| 2026-05-06 01:32 | 41.35597 | -81.45527 | 34855 ft | 548 kts | 91° |
| 2026-05-06 01:33 | 41.35193 | -81.35480 | 34864 ft | 547 kts | 91° |
| 2026-05-06 01:33 | 41.34857 | -81.25378 | 34859 ft | 547 kts | 91° |
| 2026-05-06 01:34 | 41.34544 | -81.15369 | 34853 ft | 546 kts | 91° |
| 2026-05-06 01:34 | 41.34232 | -81.05270 | 34843 ft | 546 kts | 91° |
| 2026-05-06 01:35 | 41.33911 | -80.95190 | 34846 ft | 545 kts | 91° |
| 2026-05-06 01:35 | 41.33584 | -80.85139 | 34863 ft | 545 kts | 90° |
| 2026-05-06 01:36 | 41.33245 | -80.75148 | 34855 ft | 544 kts | 91° |
| 2026-05-06 01:36 | 41.32894 | -80.65083 | 34863 ft | 544 kts | 90° |
| 2026-05-06 01:37 | 41.32536 | -80.55067 | 34855 ft | 543 kts | 90° |
| 2026-05-06 01:37 | 41.32167 | -80.45077 | 34854 ft | 544 kts | 91° |
| 2026-05-06 01:38 | 41.31827 | -80.35022 | 34854 ft | 541 kts | 90° |
| 2026-05-06 01:38 | 41.31520 | -80.25064 | 34860 ft | 543 kts | 91° |
| 2026-05-06 01:39 | 41.31182 | -80.15068 | 34872 ft | 542 kts | 92° |
| 2026-05-06 01:39 | 41.30716 | -80.05116 | 34865 ft | 542 kts | 93° |
| 2026-05-06 01:40 | 41.30255 | -79.95132 | 34879 ft | 542 kts | 92° |
| 2026-05-06 01:40 | 41.29830 | -79.85199 | 34880 ft | 538 kts | 92° |
| 2026-05-06 01:41 | 41.29426 | -79.75306 | 34867 ft | 538 kts | 91° |
| 2026-05-06 01:41 | 41.29045 | -79.65358 | 34887 ft | 537 kts | 90° |
| 2026-05-06 01:42 | 41.28657 | -79.55926 | 34849 ft | 537 kts | 92° |
| 2026-05-06 01:42 | 41.28201 | -79.46046 | 34866 ft | 536 kts | 91° |
| 2026-05-06 01:43 | 41.27733 | -79.36202 | 34856 ft | 535 kts | 91° |
| 2026-05-06 01:43 | 41.27248 | -79.26369 | 34848 ft | 534 kts | 91° |
| 2026-05-06 01:44 | 41.26793 | -79.16496 | 34872 ft | 534 kts | 92° |
| 2026-05-06 01:44 | 41.26334 | -79.06634 | 34855 ft | 532 kts | 92° |
| 2026-05-06 01:45 | 41.25858 | -78.96824 | 34872 ft | 533 kts | 92° |
| 2026-05-06 01:45 | 41.25380 | -78.87103 | 34465 ft | 524 kts | 92° |
| 2026-05-06 01:46 | 41.25139 | -78.82320 | 33869 ft | 522 kts | 92° |
| 2026-05-06 01:46 | 41.24899 | -78.77509 | 33107 ft | 522 kts | 93° |
| 2026-05-06 01:46 | 41.24659 | -78.72749 | 32893 ft | 513 kts | 93° |
| 2026-05-06 01:46 | 41.24414 | -78.68036 | 32860 ft | 512 kts | 93° |
| 2026-05-06 01:47 | 41.23914 | -78.58470 | 32866 ft | 526 kts | 93° |
| 2026-05-06 01:47 | 41.23401 | -78.48726 | 32861 ft | 529 kts | 93° |
| 2026-05-06 01:48 | 41.22879 | -78.39020 | 32871 ft | 528 kts | 93° |
| 2026-05-06 01:48 | 41.22337 | -78.29332 | 32877 ft | 528 kts | 94° |
| 2026-05-06 01:49 | 41.21813 | -78.19617 | 32883 ft | 527 kts | 94° |
| 2026-05-06 01:49 | 41.21223 | -78.09972 | 32881 ft | 529 kts | 96° |
| 2026-05-06 01:50 | 41.20103 | -78.00343 | 32879 ft | 528 kts | 101° |
| 2026-05-06 01:50 | 41.18775 | -77.90795 | 32887 ft | 525 kts | 101° |
| 2026-05-06 01:51 | 41.17449 | -77.81236 | 32884 ft | 528 kts | 100° |
| 2026-05-06 01:51 | 41.16216 | -77.71742 | 32886 ft | 523 kts | 99° |
| 2026-05-06 01:52 | 41.15021 | -77.62227 | 32889 ft | 524 kts | 99° |
| 2026-05-06 01:52 | 41.13790 | -77.52736 | 32896 ft | 522 kts | 99° |
| 2026-05-06 01:53 | 41.12547 | -77.43215 | 32898 ft | 520 kts | 100° |
| 2026-05-06 01:53 | 41.11324 | -77.33789 | 32886 ft | 521 kts | 101° |
| 2026-05-06 01:54 | 41.10086 | -77.24399 | 32887 ft | 519 kts | 101° |
| 2026-05-06 01:54 | 41.08838 | -77.14922 | 32875 ft | 518 kts | 100° |
| 2026-05-06 01:55 | 41.07592 | -77.05515 | 32870 ft | 518 kts | 100° |
| 2026-05-06 01:55 | 41.06336 | -76.96158 | 32451 ft | 509 kts | 101° |
| 2026-05-06 01:56 | 41.05722 | -76.91604 | 31588 ft | 511 kts | 100° |
| 2026-05-06 01:56 | 41.05092 | -76.86932 | 30636 ft | 514 kts | 100° |
| 2026-05-06 01:56 | 41.04465 | -76.82262 | 29767 ft | 514 kts | 101° |
| 2026-05-06 01:56 | 41.03846 | -76.77668 | 28922 ft | 514 kts | 102° |
| 2026-05-06 01:57 | 41.03217 | -76.73024 | 27994 ft | 515 kts | 102° |
| 2026-05-06 01:57 | 41.02677 | -76.69024 | 27187 ft | 515 kts | 102° |
| 2026-05-06 01:57 | 41.01930 | -76.64417 | 26192 ft | 515 kts | 106° |
| 2026-05-06 01:57 | 41.00983 | -76.59844 | 25200 ft | 514 kts | 109° |
| 2026-05-06 01:58 | 40.99942 | -76.55428 | 24654 ft | 504 kts | 111° |
| 2026-05-06 01:58 | 40.98852 | -76.51035 | 23958 ft | 499 kts | 111° |
| 2026-05-06 01:58 | 40.97764 | -76.46722 | 23288 ft | 493 kts | 111° |
| 2026-05-06 01:58 | 40.96681 | -76.42429 | 22647 ft | 487 kts | 111° |
| 2026-05-06 01:59 | 40.95624 | -76.38219 | 21940 ft | 483 kts | 111° |
| 2026-05-06 01:59 | 40.94570 | -76.33998 | 21229 ft | 479 kts | 112° |
| 2026-05-06 01:59 | 40.93545 | -76.29855 | 20625 ft | 472 kts | 112° |
| 2026-05-06 01:59 | 40.92536 | -76.25758 | 20013 ft | 466 kts | 112° |
| 2026-05-06 02:00 | 40.91523 | -76.21641 | 19243 ft | 464 kts | 112° |
| 2026-05-06 02:00 | 40.90535 | -76.17621 | 18639 ft | 458 kts | 112° |
| 2026-05-06 02:00 | 40.89571 | -76.13681 | 18026 ft | 452 kts | 112° |
| 2026-05-06 02:00 | 40.88619 | -76.09791 | 17356 ft | 448 kts | 112° |
| 2026-05-06 02:01 | 40.87658 | -76.05859 | 16678 ft | 444 kts | 112° |
| 2026-05-06 02:01 | 40.86716 | -76.02008 | 15910 ft | 443 kts | 112° |
| 2026-05-06 02:01 | 40.85768 | -75.98142 | 15306 ft | 439 kts | 111° |
| 2026-05-06 02:01 | 40.84832 | -75.94328 | 14892 ft | 429 kts | 111° |
| 2026-05-06 02:02 | 40.83931 | -75.90658 | 14740 ft | 412 kts | 112° |
| 2026-05-06 02:02 | 40.83063 | -75.87131 | 14584 ft | 397 kts | 112° |
| 2026-05-06 02:02 | 40.82226 | -75.83732 | 14451 ft | 383 kts | 112° |
| 2026-05-06 02:02 | 40.81417 | -75.80456 | 14321 ft | 370 kts | 112° |
| 2026-05-06 02:03 | 40.80632 | -75.77282 | 14255 ft | 355 kts | 112° |
| 2026-05-06 02:03 | 40.79886 | -75.74274 | 14219 ft | 340 kts | 112° |
| 2026-05-06 02:03 | 40.79150 | -75.71326 | 13981 ft | 334 kts | 112° |
| 2026-05-06 02:03 | 40.78426 | -75.68433 | 13556 ft | 334 kts | 112° |
| 2026-05-06 02:04 | 40.77693 | -75.65502 | 13167 ft | 331 kts | 112° |
| 2026-05-06 02:04 | 40.76983 | -75.62666 | 12786 ft | 330 kts | 112° |
| 2026-05-06 02:04 | 40.76265 | -75.59799 | 12398 ft | 327 kts | 112° |
| 2026-05-06 02:04 | 40.75554 | -75.56960 | 12027 ft | 325 kts | 112° |
| 2026-05-06 02:05 | 40.74848 | -75.54141 | 11703 ft | 322 kts | 112° |
| 2026-05-06 02:05 | 40.74157 | -75.51379 | 11364 ft | 319 kts | 112° |
| 2026-05-06 02:05 | 40.73449 | -75.48570 | 10954 ft | 319 kts | 112° |
| 2026-05-06 02:05 | 40.72756 | -75.45814 | 10664 ft | 314 kts | 112° |
| 2026-05-06 02:06 | 40.72123 | -75.43063 | 10283 ft | 315 kts | 109° |
| 2026-05-06 02:06 | 40.71581 | -75.40313 | 10096 ft | 308 kts | 108° |
| 2026-05-06 02:06 | 40.71084 | -75.37624 | 10006 ft | 302 kts | 108° |
| 2026-05-06 02:06 | 40.70568 | -75.34905 | 10008 ft | 307 kts | 108° |
| 2026-05-06 02:07 | 40.70030 | -75.32159 | 9999 ft | 308 kts | 109° |
| 2026-05-06 02:07 | 40.69486 | -75.29431 | 10011 ft | 306 kts | 109° |
| 2026-05-06 02:07 | 40.68951 | -75.26759 | 10022 ft | 305 kts | 109° |
| 2026-05-06 02:07 | 40.68407 | -75.24043 | 10018 ft | 307 kts | 109° |
| 2026-05-06 02:08 | 40.67859 | -75.21318 | 10025 ft | 306 kts | 109° |
| 2026-05-06 02:08 | 40.67320 | -75.18623 | 9716 ft | 301 kts | 109° |
| 2026-05-06 02:08 | 40.66742 | -75.15990 | 9266 ft | 295 kts | 114° |
| 2026-05-06 02:08 | 40.65854 | -75.13674 | 9147 ft | 272 kts | 132° |
| 2026-05-06 02:09 | 40.64658 | -75.11867 | 8911 ft | 257 kts | 141° |
| 2026-05-06 02:09 | 40.63399 | -75.10210 | 8468 ft | 256 kts | 142° |
| 2026-05-06 02:09 | 40.62143 | -75.08537 | 8056 ft | 257 kts | 141° |
| 2026-05-06 02:09 | 40.60916 | -75.06840 | 7650 ft | 256 kts | 141° |
| 2026-05-06 02:10 | 40.59697 | -75.05109 | 7208 ft | 256 kts | 141° |
| 2026-05-06 02:10 | 40.58505 | -75.03405 | 6832 ft | 253 kts | 141° |
| 2026-05-06 02:10 | 40.57327 | -75.01686 | 6420 ft | 253 kts | 138° |
| 2026-05-06 02:10 | 40.56364 | -74.99702 | 6041 ft | 259 kts | 122° |
| 2026-05-06 02:11 | 40.55719 | -74.97513 | 6018 ft | 258 kts | 116° |
| 2026-05-06 02:11 | 40.55120 | -74.95270 | 6016 ft | 264 kts | 116° |
| 2026-05-06 02:11 | 40.54480 | -74.92989 | 6003 ft | 265 kts | 117° |
| 2026-05-06 02:11 | 40.53815 | -74.90726 | 5998 ft | 263 kts | 118° |
| 2026-05-06 02:12 | 40.53149 | -74.88506 | 6017 ft | 264 kts | 118° |
| 2026-05-06 02:12 | 40.52475 | -74.86260 | 5994 ft | 263 kts | 118° |
| 2026-05-06 02:12 | 40.51795 | -74.84003 | 6002 ft | 265 kts | 118° |
| 2026-05-06 02:12 | 40.51120 | -74.81750 | 6011 ft | 263 kts | 118° |
| 2026-05-06 02:13 | 40.50453 | -74.79520 | 6018 ft | 263 kts | 118° |
| 2026-05-06 02:13 | 40.49780 | -74.77274 | 6028 ft | 264 kts | 118° |
| 2026-05-06 02:13 | 40.49104 | -74.75030 | 6012 ft | 262 kts | 118° |
| 2026-05-06 02:13 | 40.48430 | -74.72789 | 6014 ft | 265 kts | 118° |
| 2026-05-06 02:14 | 40.47759 | -74.70554 | 6016 ft | 264 kts | 118° |
| 2026-05-06 02:14 | 40.47086 | -74.68316 | 6019 ft | 263 kts | 118° |
| 2026-05-06 02:14 | 40.46408 | -74.66079 | 6021 ft | 264 kts | 119° |
| 2026-05-06 02:14 | 40.45727 | -74.63826 | 6018 ft | 264 kts | 118° |
| 2026-05-06 02:15 | 40.45046 | -74.61566 | 6050 ft | 265 kts | 118° |
| 2026-05-06 02:15 | 40.44373 | -74.59331 | 6040 ft | 263 kts | 118° |
| 2026-05-06 02:15 | 40.43698 | -74.57095 | 6022 ft | 263 kts | 118° |
| 2026-05-06 02:15 | 40.43133 | -74.54807 | 6029 ft | 269 kts | 107° |
| 2026-05-06 02:16 | 40.43146 | -74.52297 | 6019 ft | 277 kts | 79° |
| 2026-05-06 02:16 | 40.43749 | -74.49899 | 6028 ft | 279 kts | 69° |
| 2026-05-06 02:16 | 40.44471 | -74.47552 | 5791 ft | 275 kts | 69° |
| 2026-05-06 02:16 | 40.45168 | -74.45216 | 5271 ft | 278 kts | 71° |
| 2026-05-06 02:17 | 40.45832 | -74.42841 | 4874 ft | 277 kts | 72° |
| 2026-05-06 02:17 | 40.46478 | -74.40446 | 4547 ft | 274 kts | 73° |
| 2026-05-06 02:17 | 40.47108 | -74.38093 | 4127 ft | 273 kts | 73° |
| 2026-05-06 02:17 | 40.47737 | -74.35738 | 3753 ft | 271 kts | 73° |
| 2026-05-06 02:18 | 40.48349 | -74.33468 | 3654 ft | 254 kts | 74° |
| 2026-05-06 02:18 | 40.48928 | -74.31322 | 3338 ft | 251 kts | 75° |
| 2026-05-06 02:18 | 40.49501 | -74.29169 | 3042 ft | 246 kts | 75° |
| 2026-05-06 02:18 | 40.50063 | -74.27074 | 3011 ft | 240 kts | 75° |
| 2026-05-06 02:19 | 40.50626 | -74.24970 | 3025 ft | 248 kts | 75° |
| 2026-05-06 02:19 | 40.51202 | -74.22810 | 3022 ft | 250 kts | 76° |
| 2026-05-06 02:19 | 40.51779 | -74.20647 | 3024 ft | 249 kts | 75° |
| 2026-05-06 02:19 | 40.52348 | -74.18508 | 3023 ft | 248 kts | 75° |
| 2026-05-06 02:20 | 40.53503 | -74.14181 | 3026 ft | 249 kts | 75° |
| 2026-05-06 02:20 | 40.54070 | -74.12059 | 3023 ft | 248 kts | 75° |
| 2026-05-06 02:20 | 40.54642 | -74.09900 | 3026 ft | 250 kts | 75° |
| 2026-05-06 02:21 | 40.55245 | -74.07752 | 3022 ft | 249 kts | 68° |
| 2026-05-06 02:21 | 40.56325 | -74.05952 | 3029 ft | 252 kts | 36° |
| 2026-05-06 02:21 | 40.57791 | -74.04718 | 3028 ft | 251 kts | 26° |
| 2026-05-06 02:21 | 40.59299 | -74.03554 | 3020 ft | 249 kts | 27° |
| 2026-05-06 02:22 | 40.60788 | -74.02409 | 3020 ft | 250 kts | 23° |
| 2026-05-06 02:22 | 40.62423 | -74.01604 | 3021 ft | 246 kts | 12° |
| 2026-05-06 02:22 | 40.63996 | -74.00732 | 3023 ft | 251 kts | 25° |
| 2026-05-06 02:22 | 40.65515 | -73.99559 | 3025 ft | 250 kts | 28° |
| 2026-05-06 02:23 | 40.66986 | -73.98397 | 3023 ft | 250 kts | 27° |
| 2026-05-06 02:23 | 40.68494 | -73.97218 | 3020 ft | 251 kts | 27° |
| 2026-05-06 02:23 | 40.70000 | -73.96046 | 3022 ft | 250 kts | 26° |
| 2026-05-06 02:23 | 40.71489 | -73.94884 | 3011 ft | 250 kts | 27° |
| 2026-05-06 02:24 | 40.72940 | -73.93746 | 3013 ft | 250 kts | 28° |
| 2026-05-06 02:24 | 40.74439 | -73.92577 | 3010 ft | 250 kts | 27° |
| 2026-05-06 02:24 | 40.75886 | -73.91441 | 2995 ft | 238 kts | 27° |
| 2026-05-06 02:24 | 40.77254 | -73.90365 | 2996 ft | 222 kts | 27° |
| 2026-05-06 02:25 | 40.78493 | -73.89388 | 2951 ft | 214 kts | 27° |
| 2026-05-06 02:25 | 40.79796 | -73.88355 | 2586 ft | 218 kts | 27° |
| 2026-05-06 02:25 | 40.81098 | -73.87346 | 2321 ft | 215 kts | 27° |
| 2026-05-06 02:25 | 40.82377 | -73.86393 | 2077 ft | 212 kts | 28° |
| 2026-05-06 02:26 | 40.83640 | -73.85478 | 1981 ft | 203 kts | 27° |
| 2026-05-06 02:26 | 40.84866 | -73.84583 | 2051 ft | 207 kts | 27° |
| 2026-05-06 02:26 | 40.86155 | -73.83642 | 2002 ft | 212 kts | 28° |
| 2026-05-06 02:26 | 40.87455 | -73.82694 | 2006 ft | 212 kts | 27° |
| 2026-05-06 02:27 | 40.88701 | -73.81690 | 1999 ft | 209 kts | 41° |
| 2026-05-06 02:27 | 40.89502 | -73.80130 | 2012 ft | 202 kts | 81° |
| 2026-05-06 02:27 | 40.89465 | -73.78379 | 2020 ft | 182 kts | 123° |
| 2026-05-06 02:27 | 40.88696 | -73.77249 | 2005 ft | 152 kts | 167° |
| 2026-05-06 02:28 | 40.87777 | -73.77252 | 2000 ft | 125 kts | 212° |
| 2026-05-06 02:28 | 40.87236 | -73.78095 | 2030 ft | 120 kts | 230° |
| 2026-05-06 02:28 | 40.86691 | -73.78931 | 1999 ft | 121 kts | 224° |
| 2026-05-06 02:28 | 40.86084 | -73.79757 | 1849 ft | 123 kts | 223° |
| 2026-05-06 02:29 | 40.85492 | -73.80527 | 1669 ft | 115 kts | 222° |
| 2026-05-06 02:29 | 40.84898 | -73.81182 | 1516 ft | 109 kts | 216° |
| 2026-05-06 02:29 | 40.84272 | -73.81807 | 1420 ft | 114 kts | 215° |
| 2026-05-06 02:29 | 40.83605 | -73.82418 | 1235 ft | 119 kts | 213° |
| 2026-05-06 02:30 | 40.82957 | -73.83043 | 1020 ft | 119 kts | 216° |
| 2026-05-06 02:30 | 40.82310 | -73.83669 | 911 ft | 116 kts | 213° |
| 2026-05-06 02:30 | 40.81634 | -73.84287 | 783 ft | 120 kts | 213° |
| 2026-05-06 02:30 | 40.80936 | -73.84914 | 591 ft | 124 kts | 212° |
| 2026-05-06 02:31 | 40.80239 | -73.85542 | 437 ft | 120 kts | 212° |
| 2026-05-06 02:31 | 40.79535 | -73.86165 | 294 ft | 123 kts | 212° |
| 2026-05-06 02:31 | 40.78794 | -73.86809 | 126 ft | 131 kts | 211° |
| 2026-05-06 02:31 | 40.78065 | -73.87466 | 14 ft | 116 kts | 214° |
| 2026-05-06 02:32 | 40.77568 | -73.87879 | 16 ft | 54 kts | 211° |
| 2026-05-06 02:32 | 40.77380 | -73.88036 | 16 ft | 21 kts | 186° |
| 2026-05-06 02:32 | 40.77299 | -73.87974 | 16 ft | 7 kts | 77° |
| 2026-05-06 02:32 | 40.77336 | -73.87916 | 16 ft | 8 kts | 47° |
| 2026-05-06 02:33 | 40.77378 | -73.87875 | 16 ft | 7 kts | 27° |
| 2026-05-06 02:33 | 40.77406 | -73.87856 | 16 ft | 6 kts | 28° |
| 2026-05-06 02:33 | 40.77503 | -73.87779 | 16 ft | 6 kts | 31° |
| 2026-05-06 02:34 | 40.77540 | -73.87749 | 16 ft | 5 kts | 31° |
| 2026-05-06 02:34 | 40.77578 | -73.87719 | 16 ft | 9 kts | 31° |
| 2026-05-06 02:34 | 40.77605 | -73.87633 | 17 ft | 11 kts | 107° |
| 2026-05-06 02:34 | 40.77647 | -73.87570 | 15 ft | 15 kts | 30° |
| 2026-05-06 02:35 | 40.77773 | -73.87463 | 13 ft | 15 kts | 60° |
| 2026-05-06 02:35 | 40.77775 | -73.87326 | 13 ft | 13 kts | 98° |
| 2026-05-06 02:35 | 40.77743 | -73.87217 | 13 ft | 12 kts | 118° |
| 2026-05-06 02:35 | 40.77705 | -73.87126 | 13 ft | 10 kts | 120° |
| 2026-05-06 02:36 | 40.77668 | -73.87050 | 13 ft | 9 kts | 123° |
| 2026-05-06 02:36 | 40.77636 | -73.86985 | 13 ft | 7 kts | 123° |
| 2026-05-06 02:36 | 40.77610 | -73.86932 | 13 ft | 6 kts | 123° |
| 2026-05-06 02:36 | 40.77583 | -73.86877 | 13 ft | 7 kts | 124° |
| 2026-05-06 02:37 | 40.77540 | -73.86794 | 12 ft | 12 kts | 124° |
| 2026-05-06 02:37 | 40.77491 | -73.86703 | 11 ft | 11 kts | 126° |
| 2026-05-06 02:37 | 40.77443 | -73.86619 | 10 ft | 11 kts | 127° |
| 2026-05-06 02:37 | 40.77398 | -73.86541 | 10 ft | 9 kts | 121° |
| 2026-05-06 02:38 | 40.77379 | -73.86470 | 10 ft | 7 kts | 115° |
| 2026-05-06 02:38 | 40.77358 | -73.86423 | 10 ft | 5 kts | 123° |
| 2026-05-06 02:38 | 40.77333 | -73.86376 | 10 ft | 8 kts | 124° |
| 2026-05-06 02:38 | 40.77284 | -73.86314 | 10 ft | 11 kts | 175° |
| 2026-05-06 02:39 | 40.77213 | -73.86372 | 10 ft | 12 kts | 218° |